createdAt,value
2022-09-04T00:08:46.271Z,730.86481
2022-09-04T00:23:48.720Z,588.37524
2022-09-04T00:38:51.104Z,433.28458
2022-09-04T00:53:53.450Z,214.21899
2022-09-04T01:08:56.101Z,99.83962
2022-09-04T01:23:58.957Z,71.72944
2022-09-04T01:39:04.112Z,46.5272
2022-09-04T01:54:06.471Z,31.01814
2022-09-04T02:09:08.849Z,22.29428
2022-09-04T02:24:11.124Z,21.32497
2022-09-04T02:39:13.673Z,5.8159
2022-09-04T02:54:16.006Z,0.96932
2022-09-04T03:09:18.548Z,0
2022-09-04T03:24:20.802Z,0
2022-09-04T03:39:23.179Z,0
2022-09-04T03:54:25.486Z,0
2022-09-04T04:09:27.793Z,0
2022-09-04T04:24:30.186Z,0
2022-09-04T04:39:32.566Z,0
2022-09-04T04:54:34.970Z,0
2022-09-04T05:09:37.301Z,0
2022-09-04T05:24:39.667Z,0
2022-09-04T05:39:42.023Z,0
2022-09-04T05:54:44.582Z,0
2022-09-04T06:09:46.992Z,0
2022-09-04T06:24:49.314Z,0
2022-09-04T06:39:51.694Z,0
2022-09-04T06:54:54.049Z,0
2022-09-04T07:10:01.037Z,0
2022-09-04T07:25:03.770Z,0
2022-09-04T07:40:08.173Z,0
2022-09-04T07:55:10.960Z,0
2022-09-04T08:10:13.251Z,0
2022-09-04T08:25:15.632Z,0
2022-09-04T08:40:17.997Z,0
2022-09-04T08:55:20.420Z,0
2022-09-04T09:10:22.745Z,0
2022-09-04T09:25:25.078Z,0
2022-09-04T09:40:27.363Z,0
2022-09-04T09:55:29.695Z,0
2022-09-04T10:10:32.014Z,0
2022-09-04T10:25:34.496Z,0
2022-09-04T10:40:42.334Z,0
2022-09-04T10:55:46.238Z,0
2022-09-04T11:10:48.509Z,0
2022-09-04T11:25:51.069Z,0
2022-09-04T11:40:53.389Z,0
2022-09-04T11:55:55.662Z,0
2022-09-04T12:10:57.911Z,0
2022-09-04T12:26:00.432Z,0
2022-09-04T12:41:03.169Z,0
2022-09-04T12:56:05.511Z,5.8159
2022-09-04T13:11:07.876Z,40.7113
2022-09-04T13:26:10.222Z,117.28732
2022-09-04T13:41:12.555Z,277.22458
2022-09-04T13:56:14.929Z,450.73227
2022-09-04T14:11:17.273Z,713.41711
2022-09-04T14:26:19.809Z,1318.27075
2022-09-04T14:41:22.730Z,1658.50085
2022-09-04T14:56:25.170Z,5417.51123
2022-09-04T15:11:31.156Z,22857.45703
2022-09-04T15:26:33.881Z,15839.60449
2022-09-04T15:41:36.204Z,4457.8877
2022-09-04T15:56:38.510Z,4144.79834
2022-09-04T16:11:40.768Z,4377.43408
2022-09-04T16:26:43.107Z,4616.85547
2022-09-04T16:41:45.429Z,4804.90283
2022-09-04T16:56:47.799Z,4565.48193
2022-09-04T17:11:55.715Z,4755.46777
2022-09-04T17:29:16.881Z,5197.47607
2022-09-04T17:44:30.117Z,5365.16797
2022-09-04T17:59:33.848Z,5853.70361
2022-09-04T18:14:36.167Z,6219.13623
2022-09-04T18:33:14.061Z,6452.74121
2022-09-04T18:52:17.002Z,6258.87793
2022-09-04T19:07:19.315Z,6401.36768
2022-09-04T19:22:26.314Z,6524.4707
2022-09-04T19:39:08.616Z,6329.63818
2022-09-04T20:01:00.493Z,7535.46826
2022-09-04T20:16:02.899Z,7042.08594
2022-09-04T20:31:05.243Z,6712.51807
2022-09-04T20:52:44.231Z,6093.125
2022-09-04T21:08:03.659Z,5663.71777
2022-09-04T21:23:05.986Z,5807.17627
2022-09-04T21:38:08.377Z,6418.81543
2022-09-04T21:53:13.777Z,7796.21436
2022-09-04T22:13:29.185Z,9430.48242
2022-09-04T22:28:47.241Z,12684.47852
2022-09-04T22:43:49.462Z,14151.05469
2022-09-04T22:58:51.674Z,3059.16357
2022-09-04T23:14:05.210Z,14456.38965
2022-09-04T23:29:08.868Z,4135.10498
2022-09-04T23:44:11.478Z,2310.85107
2022-09-04T23:59:16.763Z,1589.67944
